createdAt,value
2023-02-04T00:00:15.418Z,99.90
2023-02-04T00:03:02.507Z,99.90
2023-02-04T00:05:30.050Z,99.90
2023-02-04T00:07:57.846Z,99.90
2023-02-04T00:10:25.343Z,99.90
2023-02-04T00:12:56.688Z,99.90
2023-02-04T00:15:24.736Z,99.90
2023-02-04T00:17:51.795Z,99.90
2023-02-04T00:20:19.857Z,99.90
2023-02-04T00:22:48.835Z,99.90
2023-02-04T00:25:20.110Z,99.90
2023-02-04T00:27:47.138Z,99.90
2023-02-04T00:30:14.670Z,99.90
2023-02-04T00:32:41.662Z,99.30
2023-02-04T00:35:13.579Z,99.90
2023-02-04T00:40:15.002Z,99.90
2023-02-04T00:42:42.227Z,99.90
2023-02-04T00:45:11.162Z,99.90
2023-02-04T00:47:38.786Z,99.90
2023-02-04T00:50:06.595Z,98.30
2023-02-04T00:52:33.795Z,94.90
2023-02-04T00:57:28.807Z,99.90
2023-02-04T00:59:56.266Z,98.10
2023-02-04T01:02:23.371Z,99.90
2023-02-04T01:04:52.213Z,99.90
2023-02-04T01:09:47.249Z,96.10
2023-02-04T01:12:14.251Z,96.40
2023-02-04T01:14:41.739Z,97.50
2023-02-04T01:17:08.836Z,96.80
2023-02-04T01:19:36.138Z,97.10
2023-02-04T01:22:03.097Z,99.00
2023-02-04T01:24:30.458Z,95.80
2023-02-04T01:27:16.334Z,98.10
2023-02-04T01:29:43.869Z,97.90
2023-02-04T01:34:38.635Z,98.10
2023-02-04T01:42:04.336Z,92.90
2023-02-04T01:44:31.924Z,94.20
2023-02-04T01:46:59.171Z,94.50
2023-02-04T01:49:27.105Z,93.40
2023-02-04T01:54:22.083Z,95.00
2023-02-04T01:56:51.590Z,87.40
2023-02-04T01:59:19.496Z,95.00
2023-02-04T02:01:49.681Z,99.90
2023-02-04T02:04:31.262Z,98.00
2023-02-04T02:07:05.623Z,97.10
2023-02-04T02:09:34.198Z,97.30
2023-02-04T02:12:03.180Z,97.40
2023-02-04T02:14:30.659Z,91.70
2023-02-04T02:16:58.083Z,96.20
2023-02-04T02:19:36.001Z,99.50
2023-02-04T02:22:05.387Z,90.50
2023-02-04T02:24:35.133Z,99.90
2023-02-04T02:27:07.246Z,99.90
2023-02-04T02:29:35.512Z,99.90
2023-02-04T02:32:02.632Z,99.70
2023-02-04T02:34:30.642Z,99.90
2023-02-04T02:36:59.424Z,99.90
2023-02-04T02:41:56.176Z,99.50
2023-02-04T02:44:24.936Z,99.90
2023-02-04T02:46:53.210Z,99.90
2023-02-04T02:49:21.229Z,99.90
2023-02-04T02:51:48.838Z,93.20
2023-02-04T02:54:26.628Z,99.30
2023-02-04T02:56:57.607Z,90.10
2023-02-04T02:59:25.966Z,99.90
2023-02-04T03:01:57.992Z,99.70
2023-02-04T03:04:29.995Z,99.90
2023-02-04T03:06:57.315Z,99.90
2023-02-04T03:09:30.107Z,99.90
2023-02-04T03:11:57.513Z,99.90
2023-02-04T03:14:26.198Z,99.90
2023-02-04T03:16:55.173Z,93.00
2023-02-04T03:19:24.559Z,99.90
2023-02-04T03:21:52.010Z,99.90
2023-02-04T03:26:46.881Z,99.90
2023-02-04T03:29:14.427Z,99.90
2023-02-04T03:34:09.306Z,99.90
2023-02-04T03:36:36.686Z,99.90
2023-02-04T03:39:06.765Z,99.90
2023-02-04T03:41:33.969Z,99.90
2023-02-04T03:44:01.244Z,99.90
2023-02-04T03:46:28.863Z,99.90
2023-02-04T03:48:56.249Z,99.90
2023-02-04T03:51:23.296Z,99.90
2023-02-04T03:53:50.583Z,99.90
2023-02-04T03:56:17.675Z,99.90
2023-02-04T03:58:45.026Z,99.90
2023-02-04T04:01:14.663Z,99.90
2023-02-04T04:03:42.070Z,99.60
2023-02-04T04:06:10.846Z,97.80
2023-02-04T04:08:38.903Z,97.30
2023-02-04T04:11:06.034Z,97.40
2023-02-04T04:13:35.448Z,95.10
2023-02-04T04:16:05.052Z,95.00
2023-02-04T04:18:33.548Z,94.80
2023-02-04T04:21:00.573Z,91.80
2023-02-04T04:23:28.023Z,92.20
2023-02-04T04:25:55.077Z,90.10
2023-02-04T04:28:22.522Z,90.20
2023-02-04T04:30:49.558Z,82.40
2023-02-04T04:33:16.976Z,83.90
2023-02-04T04:35:43.970Z,81.40
2023-02-04T04:38:11.360Z,77.50
2023-02-04T04:40:38.364Z,77.40
2023-02-04T04:43:07.995Z,79.90
2023-02-04T04:48:02.756Z,84.20
2023-02-04T04:50:30.110Z,84.10
2023-02-04T04:52:57.679Z,88.10
2023-02-04T04:55:24.685Z,87.20
2023-02-04T04:57:54.990Z,86.90
2023-02-04T05:00:22.549Z,85.30
2023-02-04T05:02:49.903Z,83.40
2023-02-04T05:05:17.077Z,80.30
2023-02-04T05:10:11.806Z,76.20
2023-02-04T05:12:39.197Z,62.10
2023-02-04T05:17:34.170Z,69.20
2023-02-04T05:20:01.230Z,71.00
2023-02-04T05:22:28.573Z,75.20
2023-02-04T05:24:55.668Z,84.50
2023-02-04T05:27:23.174Z,84.80
2023-02-04T05:29:50.085Z,79.00
2023-02-04T05:32:17.361Z,72.60
2023-02-04T05:34:44.387Z,71.50
2023-02-04T05:42:06.934Z,64.90
2023-02-04T05:44:33.928Z,62.60
2023-02-04T05:47:01.301Z,63.90
2023-02-04T05:59:22.944Z,65.80
2023-02-04T06:01:50.443Z,66.50
2023-02-04T06:04:17.942Z,66.80
2023-02-04T06:06:45.570Z,65.20
2023-02-04T06:11:40.784Z,72.90
2023-02-04T06:14:07.972Z,76.70
2023-02-04T06:16:35.438Z,84.60
2023-02-04T06:19:02.734Z,86.60
2023-02-04T06:23:57.762Z,72.40
2023-02-04T06:26:25.034Z,67.70
2023-02-04T06:33:47.238Z,64.60
2023-02-04T06:36:14.826Z,63.30
2023-02-04T06:38:41.944Z,64.60
2023-02-04T06:41:09.279Z,66.40
2023-02-04T06:43:36.299Z,72.80
2023-02-04T06:46:03.606Z,74.00
2023-02-04T06:48:31.229Z,74.30
2023-02-04T06:50:58.697Z,73.10
2023-02-04T06:53:25.743Z,70.00
2023-02-04T06:55:53.223Z,58.70
2023-02-04T06:58:20.305Z,54.30
2023-02-04T07:00:47.807Z,50.20
2023-02-04T07:03:14.799Z,54.30
2023-02-04T07:05:42.196Z,42.80
2023-02-04T07:08:09.424Z,48.20
2023-02-04T07:10:37.162Z,49.40
2023-02-04T07:15:32.086Z,47.20
2023-02-04T07:18:00.191Z,39.60
2023-02-04T07:20:28.030Z,39.30
2023-02-04T07:22:57.187Z,34.40
2023-02-04T07:25:24.604Z,1.20
2023-02-04T07:27:51.636Z,1.00
2023-02-04T07:30:20.241Z,1.00
2023-02-04T07:32:47.204Z,1.00
2023-02-04T07:35:14.795Z,1.00
2023-02-04T07:37:41.811Z,1.00
2023-02-04T07:40:10.603Z,1.00
2023-02-04T07:42:37.855Z,1.00
2023-02-04T07:45:11.434Z,1.00
2023-02-04T07:47:38.430Z,1.00
2023-02-04T07:50:06.958Z,4.40
2023-02-04T07:52:34.154Z,13.40
2023-02-04T07:55:01.616Z,10.30
2023-02-04T07:57:30.054Z,15.40
2023-02-04T08:04:53.162Z,35.40
2023-02-04T08:07:20.240Z,23.80
2023-02-04T08:09:47.560Z,10.60
2023-02-04T08:12:14.582Z,1.00
2023-02-04T08:14:41.860Z,1.00
2023-02-04T08:17:08.871Z,1.00
2023-02-04T08:19:36.157Z,1.00
2023-02-04T08:22:04.260Z,1.00
2023-02-04T08:24:31.956Z,1.00
2023-02-04T08:31:56.795Z,1.00
2023-02-04T08:39:19.393Z,1.00
2023-02-04T08:41:46.550Z,1.00
2023-02-04T08:44:13.816Z,1.00
2023-02-04T08:46:41.044Z,1.00
2023-02-04T08:49:08.391Z,1.00
2023-02-04T08:51:35.453Z,1.00
2023-02-04T08:56:31.163Z,1.00
2023-02-04T08:58:58.490Z,1.00
2023-02-04T09:01:25.531Z,1.00
2023-02-04T09:03:52.969Z,1.00
2023-02-04T09:06:19.960Z,1.00
2023-02-04T09:11:14.950Z,99.90
2023-02-04T09:16:10.813Z,99.90
2023-02-04T09:18:38.657Z,99.90
2023-02-04T09:21:05.773Z,99.90
2023-02-04T09:23:33.044Z,99.90
2023-02-04T09:26:01.366Z,99.90
2023-02-04T09:28:28.989Z,1.00
2023-02-04T09:30:56.238Z,99.90
2023-02-04T09:33:24.156Z,99.90
2023-02-04T09:35:52.744Z,1.00
2023-02-04T09:38:22.006Z,1.00
2023-02-04T09:40:54.588Z,1.00
2023-02-04T09:43:27.736Z,1.00
2023-02-04T09:45:55.505Z,1.00
2023-02-04T09:48:24.620Z,1.00
2023-02-04T09:50:52.892Z,99.90
2023-02-04T09:53:25.703Z,99.90
2023-02-04T09:55:53.056Z,1.00
2023-02-04T09:58:22.593Z,99.90
2023-02-04T10:00:59.237Z,1.00
2023-02-04T10:03:26.939Z,1.00
2023-02-04T10:08:31.285Z,1.00
2023-02-04T10:10:58.364Z,1.00
2023-02-04T10:13:36.135Z,99.90
2023-02-04T10:16:11.030Z,99.90
2023-02-04T10:21:20.818Z,1.00
2023-02-04T10:23:51.413Z,1.00
2023-02-04T10:26:20.492Z,1.00
2023-02-04T10:28:49.739Z,99.90
2023-02-04T10:31:30.010Z,99.90
2023-02-04T10:34:13.983Z,99.90
2023-02-04T10:36:43.417Z,99.90
2023-02-04T10:39:20.441Z,99.90
2023-02-04T10:41:50.618Z,99.90
2023-02-04T10:44:30.331Z,99.90
2023-02-04T10:47:31.326Z,99.90
2023-02-04T10:50:14.856Z,99.90
2023-02-04T10:52:46.110Z,99.90
2023-02-04T10:55:23.630Z,99.90
2023-02-04T10:57:52.877Z,99.90
2023-02-04T11:00:23.366Z,99.90
2023-02-04T11:03:04.903Z,99.90
2023-02-04T11:05:36.542Z,99.90
2023-02-04T11:08:19.651Z,99.90
2023-02-04T11:13:23.927Z,99.90
2023-02-04T11:16:14.570Z,99.90
2023-02-04T11:18:44.830Z,99.90
2023-02-04T11:21:33.700Z,99.90
2023-02-04T11:24:16.713Z,99.90
2023-02-04T11:26:51.815Z,1.00
2023-02-04T11:29:34.759Z,1.00
2023-02-04T11:32:05.256Z,1.00
2023-02-04T11:34:44.853Z,1.00
2023-02-04T11:37:17.693Z,1.00
2023-02-04T11:39:50.595Z,1.00
2023-02-04T11:42:40.917Z,1.00
2023-02-04T11:45:22.551Z,1.00
2023-02-04T11:47:51.784Z,6.20
2023-02-04T11:50:34.253Z,1.00
2023-02-04T11:53:03.253Z,1.00
2023-02-04T11:55:36.652Z,1.00
2023-02-04T11:58:13.986Z,2.30
2023-02-04T12:00:42.475Z,5.60
2023-02-04T12:03:34.354Z,1.00
2023-02-04T12:06:03.305Z,1.00
2023-02-04T12:08:33.432Z,1.00
2023-02-04T12:11:11.301Z,1.10
2023-02-04T12:13:50.214Z,1.00
2023-02-04T12:16:17.776Z,19.90
2023-02-04T12:18:45.274Z,1.00
2023-02-04T12:21:14.318Z,6.50
2023-02-04T12:23:44.750Z,10.80
2023-02-04T12:26:12.454Z,16.60
2023-02-04T12:28:39.797Z,20.70
2023-02-04T12:31:07.427Z,27.50
2023-02-04T12:33:34.866Z,31.50
2023-02-04T12:36:01.875Z,34.40
2023-02-04T12:38:30.264Z,12.70
2023-02-04T12:40:59.018Z,40.50
2023-02-04T12:45:55.924Z,1.00
2023-02-04T12:48:23.352Z,1.00
2023-02-04T12:50:50.486Z,1.00
2023-02-04T12:53:17.900Z,1.00
2023-02-04T12:55:45.024Z,1.00
2023-02-04T12:58:12.817Z,1.00
2023-02-04T13:00:40.210Z,1.00
2023-02-04T13:03:07.556Z,1.00
2023-02-04T13:05:36.137Z,1.00
2023-02-04T13:08:03.558Z,1.00
2023-02-04T13:10:30.742Z,1.00
2023-02-04T13:12:59.895Z,3.80
2023-02-04T13:15:27.491Z,1.00
2023-02-04T13:17:55.020Z,1.00
2023-02-04T13:20:22.248Z,1.00
2023-02-04T13:22:51.882Z,1.00
2023-02-04T13:25:22.974Z,1.00
2023-02-04T13:27:50.797Z,14.20
2023-02-04T13:30:18.182Z,12.50
2023-02-04T13:32:47.997Z,12.30
2023-02-04T13:35:15.201Z,12.30
2023-02-04T13:40:12.161Z,13.10
2023-02-04T13:42:39.460Z,22.80
2023-02-04T13:45:07.767Z,16.20
2023-02-04T13:50:02.526Z,10.20
2023-02-04T13:52:33.548Z,13.00
2023-02-04T13:55:01.209Z,1.00
2023-02-04T14:02:25.832Z,1.00
2023-02-04T14:04:53.329Z,1.00
2023-02-04T14:07:22.748Z,1.00
2023-02-04T14:09:50.414Z,4.00
2023-02-04T14:12:20.948Z,14.40
2023-02-04T14:14:49.291Z,16.60
2023-02-04T14:17:16.782Z,14.00
2023-02-04T14:19:44.099Z,19.00
2023-02-04T14:22:13.215Z,30.00
2023-02-04T14:24:42.606Z,33.00
2023-02-04T14:29:38.111Z,29.60
2023-02-04T14:32:05.778Z,23.90
2023-02-04T14:34:32.909Z,22.90
2023-02-04T14:37:00.273Z,24.30
2023-02-04T14:41:58.281Z,12.60
2023-02-04T14:44:25.393Z,14.60
2023-02-04T14:46:56.736Z,13.20
2023-02-04T14:49:26.652Z,11.30
2023-02-04T14:51:54.909Z,15.00
2023-02-04T14:54:22.073Z,16.80
2023-02-04T14:56:50.453Z,11.70
2023-02-04T14:59:19.669Z,13.70
2023-02-04T15:01:49.012Z,1.00
2023-02-04T15:06:51.029Z,34.30
2023-02-04T15:09:18.490Z,43.20
2023-02-04T15:11:46.012Z,43.50
2023-02-04T15:14:13.262Z,32.20
2023-02-04T15:19:11.216Z,47.60
2023-02-04T15:21:38.766Z,53.50
2023-02-04T15:29:05.370Z,49.80
2023-02-04T15:31:32.826Z,60.40
2023-02-04T15:34:01.288Z,48.80
2023-02-04T15:36:28.833Z,75.40
2023-02-04T15:41:24.454Z,87.10
2023-02-04T15:43:51.934Z,90.20
2023-02-04T15:46:21.046Z,80.80
2023-02-04T15:48:49.015Z,94.50
2023-02-04T15:51:16.638Z,94.40
2023-02-04T15:53:43.922Z,95.80
2023-02-04T15:56:14.474Z,89.60
2023-02-04T15:58:41.599Z,99.50
2023-02-04T16:01:09.171Z,99.90
2023-02-04T16:03:36.703Z,99.90
2023-02-04T16:06:05.270Z,99.90
2023-02-04T16:11:00.182Z,99.90
2023-02-04T16:13:29.869Z,99.90
2023-02-04T16:15:57.525Z,99.90
2023-02-04T16:20:55.837Z,99.90
2023-02-04T16:25:52.030Z,99.90
2023-02-04T16:28:22.743Z,99.90
2023-02-04T16:30:53.492Z,99.90
2023-02-04T16:33:20.680Z,99.90
2023-02-04T16:36:00.196Z,99.90
2023-02-04T16:38:28.147Z,99.90
2023-02-04T16:40:55.566Z,99.90
2023-02-04T16:43:23.773Z,99.90
2023-02-04T16:45:52.264Z,99.90
2023-02-04T16:48:19.500Z,99.90
2023-02-04T16:50:46.876Z,99.90
2023-02-04T16:53:17.092Z,99.90
2023-02-04T16:55:45.483Z,99.90
2023-02-04T16:58:14.310Z,99.90
2023-02-04T17:00:43.466Z,99.90
2023-02-04T17:03:12.427Z,99.90
2023-02-04T17:05:40.808Z,99.90
2023-02-04T17:08:08.659Z,99.90
2023-02-04T17:11:13.188Z,99.90
2023-02-04T17:13:42.117Z,99.90
2023-02-04T17:18:37.257Z,99.90
2023-02-04T17:21:05.933Z,99.90
2023-02-04T17:26:00.699Z,99.90
2023-02-04T17:28:27.741Z,99.90
2023-02-04T17:30:55.120Z,99.90
2023-02-04T17:35:50.418Z,99.90
2023-02-04T17:38:17.463Z,99.90
2023-02-04T17:40:44.875Z,99.90
2023-02-04T17:43:12.089Z,99.90
2023-02-04T17:45:39.623Z,99.90
2023-02-04T17:48:06.750Z,99.90
2023-02-04T17:53:11.855Z,99.90
2023-02-04T17:55:39.899Z,99.90
2023-02-04T17:58:14.607Z,99.90
2023-02-04T18:00:45.045Z,99.90
2023-02-04T18:03:14.598Z,99.90
2023-02-04T18:05:50.234Z,99.90
2023-02-04T18:08:21.708Z,99.90
2023-02-04T18:10:51.224Z,99.90
2023-02-04T18:13:25.463Z,99.90
2023-02-04T18:15:56.240Z,99.90
2023-02-04T18:18:26.026Z,99.90
2023-02-04T18:21:21.973Z,99.90
2023-02-04T18:24:09.274Z,99.90
2023-02-04T18:26:46.899Z,99.90
2023-02-04T18:29:35.580Z,99.90
2023-02-04T18:32:25.805Z,99.90
2023-02-04T18:34:55.223Z,99.90
2023-02-04T18:37:46.677Z,99.90
2023-02-04T18:40:27.635Z,99.90
2023-02-04T18:43:50.980Z,99.90
2023-02-04T18:46:31.349Z,99.90
2023-02-04T18:49:03.206Z,99.90
2023-02-04T18:51:33.356Z,99.90
2023-02-04T18:54:18.514Z,99.90
2023-02-04T18:56:48.328Z,99.90
2023-02-04T18:59:18.058Z,99.90
2023-02-04T19:01:47.713Z,99.90
2023-02-04T19:04:22.445Z,99.90
2023-02-04T19:06:52.286Z,99.90
2023-02-04T19:09:26.797Z,99.90
2023-02-04T19:11:56.389Z,99.90
2023-02-04T19:14:39.076Z,99.90
2023-02-04T19:17:27.128Z,99.90
2023-02-04T19:19:57.868Z,99.90
2023-02-04T19:22:46.097Z,99.90
2023-02-04T19:25:22.620Z,99.90
2023-02-04T19:27:58.584Z,99.90
2023-02-04T19:30:29.495Z,99.90
2023-02-04T19:33:13.891Z,99.90
2023-02-04T19:35:46.751Z,99.90
2023-02-04T19:38:41.192Z,99.90
2023-02-04T19:41:33.323Z,99.90
2023-02-04T19:44:12.615Z,99.90
2023-02-04T19:46:41.186Z,99.90
2023-02-04T19:49:29.451Z,99.90
2023-02-04T19:51:58.735Z,99.90
2023-02-04T19:54:38.756Z,99.90
2023-02-04T19:57:21.882Z,99.90
2023-02-04T19:59:49.028Z,99.90
2023-02-04T20:02:19.586Z,99.90
2023-02-04T20:04:50.058Z,99.90
2023-02-04T20:07:24.087Z,99.90
2023-02-04T20:10:02.620Z,99.90
2023-02-04T20:12:32.198Z,99.90
2023-02-04T20:15:02.470Z,99.90
2023-02-04T20:17:41.362Z,99.90
2023-02-04T20:20:29.909Z,99.90
2023-02-04T20:23:02.359Z,99.90
2023-02-04T20:25:48.761Z,99.90
2023-02-04T20:28:16.606Z,99.90
2023-02-04T20:33:28.181Z,99.90
2023-02-04T20:36:23.382Z,99.90
2023-02-04T20:41:21.190Z,99.90
2023-02-04T20:43:51.672Z,99.90
2023-02-04T20:46:25.748Z,99.90
2023-02-04T20:51:23.550Z,99.90
2023-02-04T20:53:57.476Z,99.90
2023-02-04T20:56:40.642Z,99.90
2023-02-04T20:59:30.327Z,99.90
2023-02-04T21:04:43.971Z,99.90
2023-02-04T21:07:19.615Z,99.90
2023-02-04T21:09:48.214Z,99.90
2023-02-04T21:12:17.821Z,99.90
2023-02-04T21:14:45.122Z,99.90
2023-02-04T21:17:14.153Z,99.90
2023-02-04T21:19:41.474Z,99.90
2023-02-04T21:22:08.617Z,99.90
2023-02-04T21:24:39.420Z,99.90
2023-02-04T21:27:06.438Z,99.90
2023-02-04T21:29:33.816Z,99.90
2023-02-04T21:32:00.918Z,99.90
2023-02-04T21:39:24.876Z,99.90
2023-02-04T21:42:10.166Z,99.90
2023-02-04T21:49:34.127Z,99.90
2023-02-04T21:52:01.217Z,99.90
2023-02-04T21:54:28.557Z,99.90
2023-02-04T21:57:01.936Z,99.90
2023-02-04T21:59:29.270Z,99.90
2023-02-04T22:01:56.579Z,99.90
2023-02-04T22:04:23.919Z,99.90
2023-02-04T22:06:50.919Z,99.90
2023-02-04T22:09:20.632Z,99.90
2023-02-04T22:11:48.618Z,99.90
2023-02-04T22:14:21.502Z,99.90
2023-02-04T22:16:50.959Z,99.90
2023-02-04T22:19:19.741Z,99.90
2023-02-04T22:21:46.897Z,99.90
2023-02-04T22:24:14.218Z,99.90
2023-02-04T22:29:09.087Z,99.90
2023-02-04T22:31:36.235Z,99.90
2023-02-04T22:34:05.510Z,99.90
2023-02-04T22:36:32.500Z,99.90
2023-02-04T22:38:59.816Z,99.90
2023-02-04T22:41:26.855Z,99.90
2023-02-04T22:43:54.199Z,99.90
2023-02-04T22:46:22.904Z,99.90
2023-02-04T22:48:50.373Z,99.90
2023-02-04T22:51:17.461Z,99.90
2023-02-04T22:53:44.711Z,99.90
2023-02-04T22:56:11.782Z,99.90
2023-02-04T22:58:40.550Z,99.90
2023-02-04T23:01:07.723Z,99.90
2023-02-04T23:06:03.830Z,99.90
2023-02-04T23:08:31.415Z,99.90
2023-02-04T23:10:58.602Z,99.90
2023-02-04T23:13:26.489Z,99.90
2023-02-04T23:15:56.598Z,99.90
2023-02-04T23:18:24.030Z,99.90
2023-02-04T23:20:51.073Z,99.90
2023-02-04T23:23:19.063Z,99.90
2023-02-04T23:25:49.729Z,99.90
2023-02-04T23:28:17.141Z,99.90
2023-02-04T23:30:44.209Z,97.20
2023-02-04T23:33:11.529Z,90.20
2023-02-04T23:35:39.053Z,82.80
2023-02-04T23:38:07.123Z,92.60
2023-02-04T23:40:34.384Z,76.80
2023-02-04T23:43:02.038Z,73.20
2023-02-04T23:45:29.166Z,73.70
2023-02-04T23:47:56.504Z,77.50
2023-02-04T23:50:23.634Z,70.40
2023-02-04T23:52:51.088Z,90.30
2023-02-04T23:57:49.613Z,94.40
